Terminal Aerodrome Forecast
Issued by NWS

Home | Current Version | Previous Version | Text Only | Print | Product List | Glossary On
Versions: 1 2 3 4 5 6 7 8 9 10 11 12 13 14
000
FTUS45 KABQ 290539
TAFTCC
TAF
KTCC 290539Z 2906/3006 25008KT P6SM BKN100
     FM291100 VRB06KT P6SM SCT015
      TEMPO 2911/2915 BKN015
     FM291500 10011KT P6SM VCSH SCT020 BKN060=

USA.gov is the U.S. government's official web portal to all federal, state and local government web resources and services.